sensor_id;sensor_type;location;lat;lon;timestamp;P1;durP1;ratioP1;P2;durP2;ratioP2
16579;SDS011;8402;51.466;6.806;2023-02-27T00:01:27;3.30;;;1.90;;
16579;SDS011;8402;51.466;6.806;2023-02-27T00:03:58;5.93;;;2.27;;
16579;SDS011;8402;51.466;6.806;2023-02-27T00:06:29;4.70;;;2.00;;
16579;SDS011;8402;51.466;6.806;2023-02-27T00:09:01;4.30;;;1.80;;
16579;SDS011;8402;51.466;6.806;2023-02-27T00:11:32;5.70;;;1.67;;
16579;SDS011;8402;51.466;6.806;2023-02-27T00:14:04;3.00;;;1.60;;
16579;SDS011;8402;51.466;6.806;2023-02-27T00:16:36;3.67;;;1.40;;
16579;SDS011;8402;51.466;6.806;2023-02-27T00:19:06;5.90;;;1.70;;
16579;SDS011;8402;51.466;6.806;2023-02-27T00:21:36;2.43;;;1.60;;
16579;SDS011;8402;51.466;6.806;2023-02-27T00:24:09;3.23;;;1.50;;
16579;SDS011;8402;51.466;6.806;2023-02-27T00:26:39;3.93;;;1.60;;
16579;SDS011;8402;51.466;6.806;2023-02-27T00:29:09;3.87;;;1.60;;
16579;SDS011;8402;51.466;6.806;2023-02-27T00:31:40;4.53;;;1.60;;
16579;SDS011;8402;51.466;6.806;2023-02-27T00:34:10;4.50;;;1.80;;
16579;SDS011;8402;51.466;6.806;2023-02-27T00:36:41;4.77;;;1.97;;
16579;SDS011;8402;51.466;6.806;2023-02-27T00:39:13;6.20;;;1.90;;
16579;SDS011;8402;51.466;6.806;2023-02-27T00:41:43;7.63;;;1.67;;
16579;SDS011;8402;51.466;6.806;2023-02-27T00:44:13;4.83;;;1.80;;
16579;SDS011;8402;51.466;6.806;2023-02-27T00:46:43;5.13;;;1.43;;
16579;SDS011;8402;51.466;6.806;2023-02-27T00:49:13;4.97;;;1.63;;
16579;SDS011;8402;51.466;6.806;2023-02-27T00:51:45;3.40;;;1.50;;
16579;SDS011;8402;51.466;6.806;2023-02-27T00:54:17;6.30;;;1.73;;
16579;SDS011;8402;51.466;6.806;2023-02-27T00:56:47;3.03;;;1.40;;
16579;SDS011;8402;51.466;6.806;2023-02-27T00:59:17;3.07;;;1.60;;
16579;SDS011;8402;51.466;6.806;2023-02-27T01:01:47;5.23;;;1.70;;
16579;SDS011;8402;51.466;6.806;2023-02-27T01:04:17;5.87;;;1.60;;
16579;SDS011;8402;51.466;6.806;2023-02-27T01:06:47;3.37;;;1.73;;
16579;SDS011;8402;51.466;6.806;2023-02-27T01:09:19;2.93;;;1.50;;
16579;SDS011;8402;51.466;6.806;2023-02-27T01:11:50;2.77;;;1.30;;
16579;SDS011;8402;51.466;6.806;2023-02-27T01:14:20;4.67;;;1.77;;
16579;SDS011;8402;51.466;6.806;2023-02-27T01:16:51;5.57;;;1.53;;
16579;SDS011;8402;51.466;6.806;2023-02-27T01:19:21;4.20;;;1.37;;
16579;SDS011;8402;51.466;6.806;2023-02-27T01:21:51;5.87;;;1.90;;
16579;SDS011;8402;51.466;6.806;2023-02-27T01:24:24;2.30;;;1.40;;
16579;SDS011;8402;51.466;6.806;2023-02-27T01:26:54;2.90;;;1.43;;
16579;SDS011;8402;51.466;6.806;2023-02-27T01:29:24;3.37;;;1.57;;
16579;SDS011;8402;51.466;6.806;2023-02-27T01:31:54;3.57;;;1.50;;
16579;SDS011;8402;51.466;6.806;2023-02-27T01:34:24;5.27;;;1.60;;
16579;SDS011;8402;51.466;6.806;2023-02-27T01:36:54;3.43;;;1.80;;
16579;SDS011;8402;51.466;6.806;2023-02-27T01:39:27;4.80;;;1.57;;
16579;SDS011;8402;51.466;6.806;2023-02-27T01:41:58;4.97;;;1.73;;
16579;SDS011;8402;51.466;6.806;2023-02-27T01:44:29;2.57;;;1.20;;
16579;SDS011;8402;51.466;6.806;2023-02-27T01:46:59;6.60;;;1.47;;
16579;SDS011;8402;51.466;6.806;2023-02-27T01:49:30;2.77;;;1.50;;
16579;SDS011;8402;51.466;6.806;2023-02-27T01:52:03;3.70;;;1.40;;
16579;SDS011;8402;51.466;6.806;2023-02-27T01:54:38;5.20;;;1.37;;
16579;SDS011;8402;51.466;6.806;2023-02-27T01:57:09;2.43;;;1.60;;
16579;SDS011;8402;51.466;6.806;2023-02-27T01:59:41;3.80;;;1.50;;
16579;SDS011;8402;51.466;6.806;2023-02-27T02:02:13;3.20;;;1.30;;
16579;SDS011;8402;51.466;6.806;2023-02-27T02:04:48;3.27;;;1.67;;
16579;SDS011;8402;51.466;6.806;2023-02-27T02:07:20;5.07;;;1.90;;
16579;SDS011;8402;51.466;6.806;2023-02-27T02:09:56;6.87;;;2.23;;
16579;SDS011;8402;51.466;6.806;2023-02-27T02:12:29;6.57;;;1.50;;
16579;SDS011;8402;51.466;6.806;2023-02-27T02:15:02;3.27;;;1.70;;
16579;SDS011;8402;51.466;6.806;2023-02-27T02:17:36;3.00;;;1.47;;
16579;SDS011;8402;51.466;6.806;2023-02-27T02:26:45;6.90;;;1.67;;
16579;SDS011;8402;51.466;6.806;2023-02-27T02:41:42;3.43;;;1.60;;
16579;SDS011;8402;51.466;6.806;2023-02-27T02:44:21;6.50;;;1.60;;
16579;SDS011;8402;51.466;6.806;2023-02-27T02:47:01;3.77;;;1.57;;
16579;SDS011;8402;51.466;6.806;2023-02-27T02:49:35;2.70;;;1.30;;
16579;SDS011;8402;51.466;6.806;2023-02-27T02:52:15;3.53;;;1.73;;
16579;SDS011;8402;51.466;6.806;2023-02-27T02:54:53;6.03;;;1.53;;
16579;SDS011;8402;51.466;6.806;2023-02-27T02:57:32;5.20;;;2.07;;
16579;SDS011;8402;51.466;6.806;2023-02-27T03:00:07;4.63;;;1.50;;
16579;SDS011;8402;51.466;6.806;2023-02-27T03:02:44;2.70;;;1.47;;
16579;SDS011;8402;51.466;6.806;2023-02-27T03:05:19;3.33;;;1.60;;
16579;SDS011;8402;51.466;6.806;2023-02-27T03:07:55;7.43;;;1.87;;
16579;SDS011;8402;51.466;6.806;2023-02-27T03:10:29;5.43;;;1.83;;
16579;SDS011;8402;51.466;6.806;2023-02-27T03:13:08;6.57;;;1.60;;
16579;SDS011;8402;51.466;6.806;2023-02-27T03:15:44;4.40;;;1.70;;
16579;SDS011;8402;51.466;6.806;2023-02-27T03:18:19;7.03;;;1.60;;
16579;SDS011;8402;51.466;6.806;2023-02-27T03:20:55;6.50;;;1.97;;
16579;SDS011;8402;51.466;6.806;2023-02-27T03:23:27;4.30;;;1.73;;
16579;SDS011;8402;51.466;6.806;2023-02-27T03:26:01;3.50;;;1.60;;
16579;SDS011;8402;51.466;6.806;2023-02-27T03:28:36;6.30;;;2.27;;
16579;SDS011;8402;51.466;6.806;2023-02-27T03:31:10;3.27;;;1.70;;
16579;SDS011;8402;51.466;6.806;2023-02-27T03:33:48;2.93;;;1.67;;
16579;SDS011;8402;51.466;6.806;2023-02-27T03:36:24;3.07;;;1.17;;
16579;SDS011;8402;51.466;6.806;2023-02-27T03:39:03;3.70;;;1.53;;
16579;SDS011;8402;51.466;6.806;2023-02-27T03:41:41;7.47;;;2.00;;
16579;SDS011;8402;51.466;6.806;2023-02-27T03:44:21;4.87;;;1.80;;
16579;SDS011;8402;51.466;6.806;2023-02-27T03:46:57;2.97;;;1.67;;
16579;SDS011;8402;51.466;6.806;2023-02-27T03:49:27;7.07;;;1.80;;
16579;SDS011;8402;51.466;6.806;2023-02-27T03:51:57;4.07;;;1.77;;
16579;SDS011;8402;51.466;6.806;2023-02-27T03:54:28;3.03;;;1.60;;
16579;SDS011;8402;51.466;6.806;2023-02-27T03:57:02;3.37;;;1.40;;
16579;SDS011;8402;51.466;6.806;2023-02-27T03:59:36;3.80;;;1.80;;
16579;SDS011;8402;51.466;6.806;2023-02-27T04:02:06;4.23;;;1.67;;
16579;SDS011;8402;51.466;6.806;2023-02-27T04:04:37;3.07;;;1.60;;
16579;SDS011;8402;51.466;6.806;2023-02-27T04:07:08;4.27;;;1.80;;
16579;SDS011;8402;51.466;6.806;2023-02-27T04:10:02;3.67;;;2.00;;
16579;SDS011;8402;51.466;6.806;2023-02-27T04:15:53;3.67;;;1.60;;
16579;SDS011;8402;51.466;6.806;2023-02-27T04:18:48;3.07;;;1.57;;
16579;SDS011;8402;51.466;6.806;2023-02-27T04:21:26;3.70;;;1.77;;
16579;SDS011;8402;51.466;6.806;2023-02-27T04:24:04;6.77;;;1.50;;
16579;SDS011;8402;51.466;6.806;2023-02-27T04:26:42;4.57;;;1.70;;
16579;SDS011;8402;51.466;6.806;2023-02-27T04:29:17;5.37;;;2.20;;
16579;SDS011;8402;51.466;6.806;2023-02-27T04:31:56;6.13;;;2.37;;
16579;SDS011;8402;51.466;6.806;2023-02-27T04:34:31;4.37;;;1.60;;
16579;SDS011;8402;51.466;6.806;2023-02-27T04:37:07;8.13;;;2.17;;
16579;SDS011;8402;51.466;6.806;2023-02-27T04:39:42;3.60;;;1.70;;
16579;SDS011;8402;51.466;6.806;2023-02-27T04:42:19;4.17;;;1.73;;
16579;SDS011;8402;51.466;6.806;2023-02-27T04:44:53;4.00;;;1.70;;
16579;SDS011;8402;51.466;6.806;2023-02-27T04:47:29;7.00;;;1.60;;
16579;SDS011;8402;51.466;6.806;2023-02-27T04:50:04;5.67;;;2.40;;
16579;SDS011;8402;51.466;6.806;2023-02-27T04:52:38;3.70;;;1.93;;
16579;SDS011;8402;51.466;6.806;2023-02-27T04:55:13;4.53;;;2.00;;
16579;SDS011;8402;51.466;6.806;2023-02-27T04:57:48;4.37;;;1.93;;
16579;SDS011;8402;51.466;6.806;2023-02-27T05:00:22;4.57;;;1.90;;
16579;SDS011;8402;51.466;6.806;2023-02-27T05:02:59;4.00;;;1.87;;
16579;SDS011;8402;51.466;6.806;2023-02-27T05:05:34;8.40;;;1.90;;
16579;SDS011;8402;51.466;6.806;2023-02-27T05:08:08;6.40;;;1.80;;
16579;SDS011;8402;51.466;6.806;2023-02-27T05:10:44;6.40;;;1.87;;
16579;SDS011;8402;51.466;6.806;2023-02-27T05:13:18;5.80;;;1.93;;
16579;SDS011;8402;51.466;6.806;2023-02-27T05:15:54;14.07;;;2.43;;
16579;SDS011;8402;51.466;6.806;2023-02-27T05:18:31;3.07;;;1.83;;
16579;SDS011;8402;51.466;6.806;2023-02-27T05:21:04;5.93;;;1.93;;
16579;SDS011;8402;51.466;6.806;2023-02-27T05:23:39;6.10;;;2.07;;
16579;SDS011;8402;51.466;6.806;2023-02-27T05:26:14;12.03;;;2.13;;
16579;SDS011;8402;51.466;6.806;2023-02-27T05:28:48;3.50;;;1.83;;
16579;SDS011;8402;51.466;6.806;2023-02-27T05:31:24;7.10;;;2.13;;
16579;SDS011;8402;51.466;6.806;2023-02-27T05:34:02;7.87;;;2.40;;
16579;SDS011;8402;51.466;6.806;2023-02-27T05:36:39;8.93;;;2.63;;
16579;SDS011;8402;51.466;6.806;2023-02-27T05:39:14;4.57;;;2.30;;
16579;SDS011;8402;51.466;6.806;2023-02-27T05:41:51;7.93;;;2.00;;
16579;SDS011;8402;51.466;6.806;2023-02-27T05:44:26;4.77;;;1.97;;
16579;SDS011;8402;51.466;6.806;2023-02-27T05:47:01;4.73;;;1.83;;
16579;SDS011;8402;51.466;6.806;2023-02-27T05:49:37;3.60;;;2.17;;
16579;SDS011;8402;51.466;6.806;2023-02-27T05:52:13;4.73;;;2.57;;
16579;SDS011;8402;51.466;6.806;2023-02-27T05:54:48;6.87;;;2.40;;
16579;SDS011;8402;51.466;6.806;2023-02-27T05:57:22;3.93;;;2.10;;
16579;SDS011;8402;51.466;6.806;2023-02-27T05:59:57;7.47;;;2.33;;
16579;SDS011;8402;51.466;6.806;2023-02-27T06:02:31;8.40;;;2.43;;
16579;SDS011;8402;51.466;6.806;2023-02-27T06:05:04;9.83;;;2.70;;
16579;SDS011;8402;51.466;6.806;2023-02-27T06:07:35;13.27;;;2.57;;
16579;SDS011;8402;51.466;6.806;2023-02-27T06:10:05;3.07;;;1.90;;
16579;SDS011;8402;51.466;6.806;2023-02-27T06:12:36;6.87;;;2.27;;
16579;SDS011;8402;51.466;6.806;2023-02-27T06:15:06;3.23;;;1.83;;
16579;SDS011;8402;51.466;6.806;2023-02-27T06:17:37;8.33;;;2.63;;
16579;SDS011;8402;51.466;6.806;2023-02-27T06:20:10;9.83;;;2.50;;
16579;SDS011;8402;51.466;6.806;2023-02-27T06:22:41;5.93;;;2.23;;
16579;SDS011;8402;51.466;6.806;2023-02-27T06:25:10;4.30;;;1.70;;
16579;SDS011;8402;51.466;6.806;2023-02-27T06:27:41;14.20;;;2.83;;
16579;SDS011;8402;51.466;6.806;2023-02-27T06:30:11;13.57;;;2.63;;
16579;SDS011;8402;51.466;6.806;2023-02-27T06:32:42;9.13;;;2.77;;
16579;SDS011;8402;51.466;6.806;2023-02-27T06:35:14;7.47;;;2.47;;
16579;SDS011;8402;51.466;6.806;2023-02-27T06:37:44;11.80;;;2.70;;
16579;SDS011;8402;51.466;6.806;2023-02-27T06:40:14;4.43;;;2.30;;
16579;SDS011;8402;51.466;6.806;2023-02-27T06:42:45;14.67;;;2.20;;
16579;SDS011;8402;51.466;6.806;2023-02-27T06:45:15;4.70;;;2.47;;
16579;SDS011;8402;51.466;6.806;2023-02-27T06:47:46;10.97;;;2.80;;
16579;SDS011;8402;51.466;6.806;2023-02-27T06:50:18;5.83;;;2.60;;
16579;SDS011;8402;51.466;6.806;2023-02-27T06:52:48;11.10;;;2.70;;
16579;SDS011;8402;51.466;6.806;2023-02-27T06:55:18;8.30;;;2.43;;
16579;SDS011;8402;51.466;6.806;2023-02-27T06:57:50;7.17;;;2.63;;
16579;SDS011;8402;51.466;6.806;2023-02-27T07:00:23;6.80;;;3.20;;
16579;SDS011;8402;51.466;6.806;2023-02-27T07:02:54;10.47;;;2.70;;
16579;SDS011;8402;51.466;6.806;2023-02-27T07:05:27;9.60;;;3.10;;
16579;SDS011;8402;51.466;6.806;2023-02-27T07:07:57;8.10;;;2.53;;
16579;SDS011;8402;51.466;6.806;2023-02-27T07:10:28;13.23;;;2.63;;
16579;SDS011;8402;51.466;6.806;2023-02-27T07:12:59;5.20;;;2.57;;
16579;SDS011;8402;51.466;6.806;2023-02-27T07:15:29;6.13;;;2.70;;
16579;SDS011;8402;51.466;6.806;2023-02-27T07:17:59;9.10;;;2.33;;
16579;SDS011;8402;51.466;6.806;2023-02-27T07:20:32;8.20;;;2.60;;
16579;SDS011;8402;51.466;6.806;2023-02-27T07:23:02;10.17;;;3.00;;
16579;SDS011;8402;51.466;6.806;2023-02-27T07:25:32;4.83;;;2.70;;
16579;SDS011;8402;51.466;6.806;2023-02-27T07:28:02;6.23;;;2.80;;
16579;SDS011;8402;51.466;6.806;2023-02-27T07:30:32;8.97;;;2.97;;
16579;SDS011;8402;51.466;6.806;2023-02-27T07:33:04;7.17;;;3.20;;
16579;SDS011;8402;51.466;6.806;2023-02-27T07:35:37;8.93;;;3.30;;
16579;SDS011;8402;51.466;6.806;2023-02-27T07:38:07;6.77;;;2.60;;
16579;SDS011;8402;51.466;6.806;2023-02-27T07:40:37;5.77;;;2.77;;
16579;SDS011;8402;51.466;6.806;2023-02-27T07:43:07;12.27;;;3.00;;
16579;SDS011;8402;51.466;6.806;2023-02-27T07:45:37;6.90;;;2.60;;
16579;SDS011;8402;51.466;6.806;2023-02-27T07:48:06;7.27;;;3.50;;
16579;SDS011;8402;51.466;6.806;2023-02-27T07:50:39;4.80;;;2.90;;
16579;SDS011;8402;51.466;6.806;2023-02-27T07:53:09;6.30;;;3.07;;
16579;SDS011;8402;51.466;6.806;2023-02-27T07:55:39;9.50;;;3.47;;
16579;SDS011;8402;51.466;6.806;2023-02-27T07:58:08;8.13;;;3.07;;
16579;SDS011;8402;51.466;6.806;2023-02-27T08:00:38;6.63;;;3.07;;
16579;SDS011;8402;51.466;6.806;2023-02-27T08:03:08;11.03;;;3.57;;
16579;SDS011;8402;51.466;6.806;2023-02-27T08:05:41;6.03;;;3.43;;
16579;SDS011;8402;51.466;6.806;2023-02-27T08:08:11;12.97;;;3.20;;
16579;SDS011;8402;51.466;6.806;2023-02-27T08:10:41;9.73;;;3.33;;
16579;SDS011;8402;51.466;6.806;2023-02-27T08:13:11;9.40;;;3.77;;
16579;SDS011;8402;51.466;6.806;2023-02-27T08:15:45;7.43;;;3.30;;
16579;SDS011;8402;51.466;6.806;2023-02-27T08:18:15;13.60;;;3.70;;
16579;SDS011;8402;51.466;6.806;2023-02-27T08:20:48;7.73;;;2.97;;
16579;SDS011;8402;51.466;6.806;2023-02-27T08:23:18;11.53;;;3.13;;
16579;SDS011;8402;51.466;6.806;2023-02-27T08:25:48;10.20;;;3.50;;
16579;SDS011;8402;51.466;6.806;2023-02-27T08:28:18;8.00;;;3.33;;
16579;SDS011;8402;51.466;6.806;2023-02-27T08:30:48;8.83;;;3.23;;
16579;SDS011;8402;51.466;6.806;2023-02-27T08:33:18;8.57;;;3.43;;
16579;SDS011;8402;51.466;6.806;2023-02-27T08:35:50;12.23;;;3.77;;
16579;SDS011;8402;51.466;6.806;2023-02-27T08:38:21;9.67;;;3.20;;
16579;SDS011;8402;51.466;6.806;2023-02-27T08:40:51;11.47;;;3.50;;
16579;SDS011;8402;51.466;6.806;2023-02-27T08:43:22;7.43;;;3.63;;
16579;SDS011;8402;51.466;6.806;2023-02-27T08:45:52;9.97;;;2.97;;
16579;SDS011;8402;51.466;6.806;2023-02-27T08:48:21;8.27;;;2.93;;
16579;SDS011;8402;51.466;6.806;2023-02-27T08:50:54;8.77;;;3.03;;
16579;SDS011;8402;51.466;6.806;2023-02-27T08:53:25;6.10;;;2.40;;
16579;SDS011;8402;51.466;6.806;2023-02-27T08:55:55;9.20;;;2.60;;
16579;SDS011;8402;51.466;6.806;2023-02-27T08:58:25;6.90;;;2.53;;
16579;SDS011;8402;51.466;6.806;2023-02-27T09:00:55;4.10;;;2.40;;
16579;SDS011;8402;51.466;6.806;2023-02-27T09:03:25;9.63;;;3.37;;
16579;SDS011;8402;51.466;6.806;2023-02-27T09:05:58;5.60;;;2.43;;
16579;SDS011;8402;51.466;6.806;2023-02-27T09:08:28;5.37;;;2.50;;
16579;SDS011;8402;51.466;6.806;2023-02-27T09:10:58;9.13;;;2.30;;
16579;SDS011;8402;51.466;6.806;2023-02-27T09:13:31;4.47;;;2.40;;
16579;SDS011;8402;51.466;6.806;2023-02-27T09:16:00;3.97;;;2.10;;
16579;SDS011;8402;51.466;6.806;2023-02-27T09:18:31;6.20;;;2.77;;
16579;SDS011;8402;51.466;6.806;2023-02-27T09:21:03;4.97;;;1.80;;
16579;SDS011;8402;51.466;6.806;2023-02-27T09:23:36;6.53;;;2.10;;
16579;SDS011;8402;51.466;6.806;2023-02-27T09:26:06;8.83;;;2.43;;
16579;SDS011;8402;51.466;6.806;2023-02-27T09:28:36;13.80;;;2.10;;
16579;SDS011;8402;51.466;6.806;2023-02-27T09:31:07;4.53;;;1.70;;
16579;SDS011;8402;51.466;6.806;2023-02-27T09:33:38;3.20;;;1.73;;
16579;SDS011;8402;51.466;6.806;2023-02-27T09:36:11;8.50;;;1.87;;
16579;SDS011;8402;51.466;6.806;2023-02-27T09:38:41;5.27;;;1.83;;
16579;SDS011;8402;51.466;6.806;2023-02-27T09:41:28;6.57;;;2.00;;
16579;SDS011;8402;51.466;6.806;2023-02-27T09:44:12;5.70;;;1.57;;
16579;SDS011;8402;51.466;6.806;2023-02-27T09:47:02;5.03;;;1.57;;
16579;SDS011;8402;51.466;6.806;2023-02-27T09:49:34;4.63;;;1.10;;
16579;SDS011;8402;51.466;6.806;2023-02-27T09:52:18;4.67;;;1.50;;
16579;SDS011;8402;51.466;6.806;2023-02-27T09:54:48;2.87;;;0.90;;
16579;SDS011;8402;51.466;6.806;2023-02-27T09:57:22;6.67;;;1.30;;
16579;SDS011;8402;51.466;6.806;2023-02-27T10:00:01;5.43;;;1.27;;
16579;SDS011;8402;51.466;6.806;2023-02-27T10:02:42;3.77;;;0.80;;
16579;SDS011;8402;51.466;6.806;2023-02-27T10:05:22;0.70;;;0.50;;
16579;SDS011;8402;51.466;6.806;2023-02-27T10:08:05;4.80;;;1.10;;
16579;SDS011;8402;51.466;6.806;2023-02-27T10:10:43;1.47;;;0.83;;
16579;SDS011;8402;51.466;6.806;2023-02-27T10:16:10;5.53;;;1.07;;
16579;SDS011;8402;51.466;6.806;2023-02-27T10:18:45;3.93;;;1.27;;
16579;SDS011;8402;51.466;6.806;2023-02-27T10:21:24;2.70;;;1.10;;
16579;SDS011;8402;51.466;6.806;2023-02-27T10:24:04;5.97;;;1.50;;
16579;SDS011;8402;51.466;6.806;2023-02-27T10:26:41;4.03;;;1.27;;
16579;SDS011;8402;51.466;6.806;2023-02-27T10:29:16;6.60;;;1.33;;
16579;SDS011;8402;51.466;6.806;2023-02-27T10:31:52;3.60;;;1.30;;
16579;SDS011;8402;51.466;6.806;2023-02-27T10:34:28;2.10;;;1.10;;
16579;SDS011;8402;51.466;6.806;2023-02-27T10:37:00;3.10;;;1.20;;
16579;SDS011;8402;51.466;6.806;2023-02-27T10:39:36;1.70;;;1.10;;
16579;SDS011;8402;51.466;6.806;2023-02-27T10:42:14;2.20;;;1.30;;
16579;SDS011;8402;51.466;6.806;2023-02-27T10:44:45;2.67;;;1.20;;
16579;SDS011;8402;51.466;6.806;2023-02-27T10:47:20;5.57;;;1.40;;
16579;SDS011;8402;51.466;6.806;2023-02-27T10:49:51;6.03;;;1.40;;
16579;SDS011;8402;51.466;6.806;2023-02-27T10:52:25;3.10;;;1.20;;
16579;SDS011;8402;51.466;6.806;2023-02-27T10:54:58;1.50;;;0.83;;
16579;SDS011;8402;51.466;6.806;2023-02-27T10:57:46;4.27;;;1.03;;
16579;SDS011;8402;51.466;6.806;2023-02-27T11:00:37;2.47;;;0.90;;
16579;SDS011;8402;51.466;6.806;2023-02-27T11:03:17;6.57;;;1.50;;
16579;SDS011;8402;51.466;6.806;2023-02-27T11:05:52;3.30;;;1.03;;
16579;SDS011;8402;51.466;6.806;2023-02-27T11:08:26;4.43;;;1.13;;
16579;SDS011;8402;51.466;6.806;2023-02-27T11:11:02;4.57;;;1.33;;
16579;SDS011;8402;51.466;6.806;2023-02-27T11:13:35;4.67;;;0.90;;
16579;SDS011;8402;51.466;6.806;2023-02-27T11:16:08;4.30;;;1.20;;
16579;SDS011;8402;51.466;6.806;2023-02-27T11:18:41;2.83;;;1.13;;
16579;SDS011;8402;51.466;6.806;2023-02-27T11:21:17;7.87;;;2.57;;
16579;SDS011;8402;51.466;6.806;2023-02-27T11:23:55;4.20;;;1.20;;
16579;SDS011;8402;51.466;6.806;2023-02-27T11:26:32;4.10;;;1.23;;
16579;SDS011;8402;51.466;6.806;2023-02-27T11:29:04;7.27;;;1.40;;
16579;SDS011;8402;51.466;6.806;2023-02-27T11:31:37;2.00;;;1.13;;
16579;SDS011;8402;51.466;6.806;2023-02-27T11:34:13;3.33;;;1.27;;
16579;SDS011;8402;51.466;6.806;2023-02-27T11:36:49;2.57;;;1.20;;
16579;SDS011;8402;51.466;6.806;2023-02-27T11:39:25;5.33;;;1.17;;
16579;SDS011;8402;51.466;6.806;2023-02-27T11:42:07;6.40;;;1.30;;
16579;SDS011;8402;51.466;6.806;2023-02-27T11:44:50;7.40;;;1.50;;
16579;SDS011;8402;51.466;6.806;2023-02-27T11:47:26;3.33;;;1.13;;
16579;SDS011;8402;51.466;6.806;2023-02-27T11:50:04;11.53;;;1.53;;
16579;SDS011;8402;51.466;6.806;2023-02-27T11:52:52;5.83;;;1.50;;
16579;SDS011;8402;51.466;6.806;2023-02-27T11:55:26;5.60;;;1.03;;
16579;SDS011;8402;51.466;6.806;2023-02-27T11:58:00;3.03;;;1.13;;
16579;SDS011;8402;51.466;6.806;2023-02-27T12:00:35;4.07;;;1.30;;
16579;SDS011;8402;51.466;6.806;2023-02-27T12:03:12;6.60;;;1.60;;
16579;SDS011;8402;51.466;6.806;2023-02-27T12:05:49;5.00;;;1.20;;
16579;SDS011;8402;51.466;6.806;2023-02-27T12:08:25;7.20;;;1.40;;
16579;SDS011;8402;51.466;6.806;2023-02-27T12:11:03;3.87;;;1.50;;
16579;SDS011;8402;51.466;6.806;2023-02-27T12:13:44;2.60;;;1.50;;
16579;SDS011;8402;51.466;6.806;2023-02-27T12:16:18;4.10;;;1.37;;
16579;SDS011;8402;51.466;6.806;2023-02-27T12:18:58;2.03;;;1.40;;
16579;SDS011;8402;51.466;6.806;2023-02-27T12:21:35;3.57;;;1.40;;
16579;SDS011;8402;51.466;6.806;2023-02-27T12:24:13;2.80;;;1.33;;
16579;SDS011;8402;51.466;6.806;2023-02-27T12:26:50;5.73;;;1.33;;
16579;SDS011;8402;51.466;6.806;2023-02-27T12:29:30;4.93;;;1.10;;
16579;SDS011;8402;51.466;6.806;2023-02-27T12:32:06;4.73;;;0.90;;
16579;SDS011;8402;51.466;6.806;2023-02-27T12:34:45;2.53;;;1.40;;
16579;SDS011;8402;51.466;6.806;2023-02-27T12:37:19;3.10;;;1.20;;
16579;SDS011;8402;51.466;6.806;2023-02-27T12:39:52;2.73;;;1.30;;
16579;SDS011;8402;51.466;6.806;2023-02-27T12:42:30;2.50;;;0.97;;
16579;SDS011;8402;51.466;6.806;2023-02-27T12:45:20;1.90;;;0.93;;
16579;SDS011;8402;51.466;6.806;2023-02-27T12:48:00;5.43;;;1.10;;
16579;SDS011;8402;51.466;6.806;2023-02-27T12:50:43;3.40;;;1.17;;
16579;SDS011;8402;51.466;6.806;2023-02-27T12:53:27;4.23;;;1.77;;
16579;SDS011;8402;51.466;6.806;2023-02-27T12:56:08;3.27;;;1.23;;
16579;SDS011;8402;51.466;6.806;2023-02-27T12:58:45;4.13;;;1.60;;
16579;SDS011;8402;51.466;6.806;2023-02-27T13:01:30;1.77;;;0.97;;
16579;SDS011;8402;51.466;6.806;2023-02-27T13:04:11;3.30;;;1.10;;
16579;SDS011;8402;51.466;6.806;2023-02-27T13:06:52;2.80;;;1.37;;
16579;SDS011;8402;51.466;6.806;2023-02-27T13:09:32;4.83;;;1.53;;
16579;SDS011;8402;51.466;6.806;2023-02-27T13:12:10;2.07;;;1.00;;
16579;SDS011;8402;51.466;6.806;2023-02-27T13:14:54;5.83;;;1.40;;
16579;SDS011;8402;51.466;6.806;2023-02-27T13:17:33;2.40;;;1.17;;
16579;SDS011;8402;51.466;6.806;2023-02-27T13:20:10;2.70;;;1.47;;
16579;SDS011;8402;51.466;6.806;2023-02-27T13:22:55;3.00;;;1.50;;
16579;SDS011;8402;51.466;6.806;2023-02-27T13:25:33;4.43;;;1.50;;
16579;SDS011;8402;51.466;6.806;2023-02-27T13:28:06;4.57;;;1.40;;
16579;SDS011;8402;51.466;6.806;2023-02-27T13:30:43;3.37;;;1.37;;
16579;SDS011;8402;51.466;6.806;2023-02-27T13:33:22;9.67;;;1.63;;
16579;SDS011;8402;51.466;6.806;2023-02-27T13:36:02;7.40;;;1.50;;
16579;SDS011;8402;51.466;6.806;2023-02-27T13:38:40;3.20;;;1.30;;
16579;SDS011;8402;51.466;6.806;2023-02-27T13:47:35;10.07;;;1.73;;
16579;SDS011;8402;51.466;6.806;2023-02-27T13:53:12;3.63;;;1.47;;
16579;SDS011;8402;51.466;6.806;2023-02-27T13:55:46;4.33;;;1.40;;
16579;SDS011;8402;51.466;6.806;2023-02-27T13:58:17;4.27;;;1.57;;
16579;SDS011;8402;51.466;6.806;2023-02-27T14:00:59;6.67;;;1.50;;
16579;SDS011;8402;51.466;6.806;2023-02-27T14:03:31;3.57;;;1.20;;
16579;SDS011;8402;51.466;6.806;2023-02-27T14:06:01;5.03;;;1.40;;
16579;SDS011;8402;51.466;6.806;2023-02-27T14:08:45;6.07;;;1.77;;
16579;SDS011;8402;51.466;6.806;2023-02-27T14:11:21;4.17;;;1.30;;
16579;SDS011;8402;51.466;6.806;2023-02-27T14:13:57;4.03;;;1.40;;
16579;SDS011;8402;51.466;6.806;2023-02-27T14:19:42;21.37;;;2.23;;
16579;SDS011;8402;51.466;6.806;2023-02-27T14:25:16;3.47;;;1.30;;
16579;SDS011;8402;51.466;6.806;2023-02-27T14:27:51;2.10;;;1.30;;
16579;SDS011;8402;51.466;6.806;2023-02-27T14:30:27;2.67;;;1.13;;
16579;SDS011;8402;51.466;6.806;2023-02-27T14:33:04;3.33;;;1.40;;
16579;SDS011;8402;51.466;6.806;2023-02-27T14:35:49;2.87;;;1.17;;
16579;SDS011;8402;51.466;6.806;2023-02-27T14:38:25;3.90;;;1.07;;
16579;SDS011;8402;51.466;6.806;2023-02-27T14:41:04;3.23;;;1.50;;
16579;SDS011;8402;51.466;6.806;2023-02-27T14:43:42;4.10;;;1.70;;
16579;SDS011;8402;51.466;6.806;2023-02-27T14:46:22;2.83;;;1.30;;
16579;SDS011;8402;51.466;6.806;2023-02-27T14:48:55;8.80;;;1.93;;
16579;SDS011;8402;51.466;6.806;2023-02-27T14:51:28;3.93;;;1.93;;
16579;SDS011;8402;51.466;6.806;2023-02-27T14:54:03;4.00;;;1.97;;
16579;SDS011;8402;51.466;6.806;2023-02-27T14:56:54;3.80;;;2.10;;
16579;SDS011;8402;51.466;6.806;2023-02-27T14:59:30;5.83;;;2.20;;
16579;SDS011;8402;51.466;6.806;2023-02-27T15:02:02;7.57;;;2.30;;
16579;SDS011;8402;51.466;6.806;2023-02-27T15:04:42;2.23;;;1.80;;
16579;SDS011;8402;51.466;6.806;2023-02-27T15:07:16;4.17;;;1.93;;
16579;SDS011;8402;51.466;6.806;2023-02-27T15:09:53;4.33;;;1.90;;
16579;SDS011;8402;51.466;6.806;2023-02-27T15:12:27;4.83;;;2.10;;
16579;SDS011;8402;51.466;6.806;2023-02-27T15:14:59;2.57;;;1.97;;
16579;SDS011;8402;51.466;6.806;2023-02-27T15:17:35;3.90;;;1.97;;
16579;SDS011;8402;51.466;6.806;2023-02-27T15:20:20;6.83;;;2.43;;
16579;SDS011;8402;51.466;6.806;2023-02-27T15:22:52;5.47;;;2.53;;
16579;SDS011;8402;51.466;6.806;2023-02-27T15:25:26;3.50;;;2.30;;
16579;SDS011;8402;51.466;6.806;2023-02-27T15:28:02;8.57;;;2.40;;
16579;SDS011;8402;51.466;6.806;2023-02-27T15:30:33;3.20;;;2.20;;
16579;SDS011;8402;51.466;6.806;2023-02-27T15:33:03;9.27;;;2.43;;
16579;SDS011;8402;51.466;6.806;2023-02-27T15:35:44;5.67;;;2.10;;
16579;SDS011;8402;51.466;6.806;2023-02-27T15:38:24;8.73;;;2.20;;
16579;SDS011;8402;51.466;6.806;2023-02-27T15:40:55;3.33;;;2.40;;
16579;SDS011;8402;51.466;6.806;2023-02-27T15:43:29;5.73;;;1.80;;
16579;SDS011;8402;51.466;6.806;2023-02-27T15:46:00;6.23;;;2.17;;
16579;SDS011;8402;51.466;6.806;2023-02-27T15:48:30;3.80;;;2.10;;
16579;SDS011;8402;51.466;6.806;2023-02-27T15:51:01;6.57;;;2.03;;
16579;SDS011;8402;51.466;6.806;2023-02-27T15:53:32;5.27;;;2.27;;
16579;SDS011;8402;51.466;6.806;2023-02-27T15:56:06;3.80;;;2.20;;
16579;SDS011;8402;51.466;6.806;2023-02-27T15:58:44;4.10;;;1.80;;
16579;SDS011;8402;51.466;6.806;2023-02-27T16:01:20;4.33;;;2.00;;
16579;SDS011;8402;51.466;6.806;2023-02-27T16:03:53;6.63;;;2.10;;
16579;SDS011;8402;51.466;6.806;2023-02-27T16:06:24;4.33;;;1.67;;
16579;SDS011;8402;51.466;6.806;2023-02-27T16:08:58;4.37;;;2.00;;
16579;SDS011;8402;51.466;6.806;2023-02-27T16:11:36;3.73;;;1.93;;
16579;SDS011;8402;51.466;6.806;2023-02-27T16:17:27;7.60;;;2.43;;
16579;SDS011;8402;51.466;6.806;2023-02-27T16:19:58;4.03;;;2.00;;
16579;SDS011;8402;51.466;6.806;2023-02-27T16:22:32;9.87;;;1.87;;
16579;SDS011;8402;51.466;6.806;2023-02-27T16:25:08;2.77;;;1.50;;
16579;SDS011;8402;51.466;6.806;2023-02-27T16:27:39;6.33;;;1.40;;